EXS19FA EGKK-LEGE
Flight info
| Callsign | EXS19FA |
|---|---|
| Flight time | 1h 31m |
| Altitude | 37000 |
| Route | SFD Y47 BENBO L612 XAMAB UL612 VEULE DCT DEKOD UN857 DISAK DCT DIRMO DCT VALKU DCT ATSUP DCT MINSO DCT DEGOL DCT PPG A27 KANIG |
| Aircraft | A321/M-SDE3FGHIRWY/LB1 |
Departure
| Time | 2026-05-06 16:30 |
|---|---|
| Airport | London Gatwick Airport (EGKK) |
Arrival
| Time | 2026-05-06 18:02 |
|---|---|
| Airport | Girona-Costa Brava Airport (LEGE) |
| Time | Latitude | Longitude | Altitude | Speed | Heading |
|---|---|---|---|---|---|
| 2026-05-06 15:50 | 51.15565 | -0.17006 | 205 ft | 0 kts | 167° |
| 2026-05-06 16:10 | 51.15571 | -0.17008 | 205 ft | 4 kts | 167° |
| 2026-05-06 16:10 | 51.15598 | -0.17017 | 213 ft | 4 kts | 167° |
| 2026-05-06 16:10 | 51.15621 | -0.17026 | 211 ft | 4 kts | 173° |
| 2026-05-06 16:11 | 51.15642 | -0.17020 | 215 ft | 4 kts | 231° |
| 2026-05-06 16:11 | 51.15652 | -0.16987 | 211 ft | 2 kts | 257° |
| 2026-05-06 16:11 | 51.15652 | -0.16985 | 211 ft | 0 kts | 257° |
| 2026-05-06 16:13 | 51.15651 | -0.16992 | 210 ft | 1 kts | 257° |
| 2026-05-06 16:14 | 51.15647 | -0.17023 | 214 ft | 4 kts | 257° |
| 2026-05-06 16:14 | 51.15638 | -0.17085 | 205 ft | 7 kts | 257° |
| 2026-05-06 16:14 | 51.15627 | -0.17159 | 209 ft | 6 kts | 257° |
| 2026-05-06 16:14 | 51.15620 | -0.17205 | 208 ft | 4 kts | 257° |
| 2026-05-06 16:15 | 51.15610 | -0.17273 | 208 ft | 7 kts | 256° |
| 2026-05-06 16:15 | 51.15601 | -0.17332 | 209 ft | 6 kts | 256° |
| 2026-05-06 16:15 | 51.15585 | -0.17413 | 212 ft | 8 kts | 238° |
| 2026-05-06 16:15 | 51.15526 | -0.17436 | 211 ft | 12 kts | 169° |
| 2026-05-06 16:16 | 51.15440 | -0.17406 | 205 ft | 12 kts | 167° |
| 2026-05-06 16:16 | 51.15359 | -0.17377 | 214 ft | 11 kts | 167° |
| 2026-05-06 16:16 | 51.15304 | -0.17423 | 208 ft | 10 kts | 249° |
| 2026-05-06 16:16 | 51.15288 | -0.17546 | 208 ft | 12 kts | 258° |
| 2026-05-06 16:17 | 51.15270 | -0.17681 | 210 ft | 13 kts | 258° |
| 2026-05-06 16:17 | 51.15250 | -0.17824 | 205 ft | 14 kts | 257° |
| 2026-05-06 16:17 | 51.15230 | -0.17969 | 215 ft | 14 kts | 257° |
| 2026-05-06 16:17 | 51.15208 | -0.18124 | 205 ft | 16 kts | 257° |
| 2026-05-06 16:18 | 51.15183 | -0.18333 | 211 ft | 21 kts | 260° |
| 2026-05-06 16:18 | 51.15154 | -0.18567 | 209 ft | 21 kts | 258° |
| 2026-05-06 16:18 | 51.15123 | -0.18794 | 209 ft | 21 kts | 257° |
| 2026-05-06 16:18 | 51.15093 | -0.19012 | 209 ft | 20 kts | 257° |
| 2026-05-06 16:19 | 51.15067 | -0.19201 | 209 ft | 12 kts | 257° |
| 2026-05-06 16:19 | 51.15019 | -0.19270 | 212 ft | 10 kts | 176° |
| 2026-05-06 16:19 | 51.14966 | -0.19309 | 208 ft | 11 kts | 236° |
| 2026-05-06 16:19 | 51.14939 | -0.19464 | 215 ft | 18 kts | 257° |
| 2026-05-06 16:20 | 51.14906 | -0.19700 | 210 ft | 25 kts | 258° |
| 2026-05-06 16:20 | 51.14867 | -0.19983 | 209 ft | 25 kts | 257° |
| 2026-05-06 16:20 | 51.14830 | -0.20251 | 207 ft | 25 kts | 258° |
| 2026-05-06 16:20 | 51.14797 | -0.20489 | 215 ft | 18 kts | 257° |
| 2026-05-06 16:21 | 51.14774 | -0.20653 | 204 ft | 9 kts | 257° |
| 2026-05-06 16:21 | 51.14742 | -0.20724 | 207 ft | 7 kts | 202° |
| 2026-05-06 16:21 | 51.14715 | -0.20722 | 211 ft | 0 kts | 168° |
| 2026-05-06 16:28 | 51.14693 | -0.20715 | 206 ft | 8 kts | 168° |
| 2026-05-06 16:29 | 51.14630 | -0.20694 | 211 ft | 8 kts | 168° |
| 2026-05-06 16:29 | 51.14592 | -0.20677 | 217 ft | 4 kts | 142° |
| 2026-05-06 16:29 | 51.14592 | -0.20651 | 212 ft | 0 kts | 77° |
| 2026-05-06 16:29 | 51.14592 | -0.20649 | 212 ft | 1 kts | 77° |
| 2026-05-06 16:30 | 51.14618 | -0.20461 | 212 ft | 48 kts | 77° |
| 2026-05-06 16:30 | 51.14690 | -0.19947 | 214 ft | 94 kts | 78° |
| 2026-05-06 16:30 | 51.14946 | -0.18076 | 301 ft | 152 kts | 73° |
| 2026-05-06 16:30 | 51.15173 | -0.16469 | 1012 ft | 149 kts | 74° |
| 2026-05-06 16:31 | 51.15397 | -0.14842 | 1667 ft | 156 kts | 75° |
| 2026-05-06 16:31 | 51.15645 | -0.13051 | 2001 ft | 176 kts | 74° |
| 2026-05-06 16:31 | 51.15926 | -0.11045 | 2342 ft | 194 kts | 75° |
| 2026-05-06 16:31 | 51.16224 | -0.08856 | 2689 ft | 212 kts | 77° |
| 2026-05-06 16:32 | 51.16090 | -0.06457 | 3268 ft | 230 kts | 114° |
| 2026-05-06 16:32 | 51.14947 | -0.04525 | 3725 ft | 258 kts | 152° |
| 2026-05-06 16:32 | 51.13192 | -0.03636 | 4439 ft | 270 kts | 169° |
| 2026-05-06 16:32 | 51.11300 | -0.03257 | 5303 ft | 277 kts | 174° |
| 2026-05-06 16:33 | 51.09364 | -0.02964 | 6196 ft | 282 kts | 174° |
| 2026-05-06 16:33 | 51.07429 | -0.02632 | 7086 ft | 284 kts | 171° |
| 2026-05-06 16:33 | 51.05483 | -0.01958 | 7941 ft | 288 kts | 165° |
| 2026-05-06 16:34 | 51.01595 | -0.00049 | 9621 ft | 296 kts | 161° |
| 2026-05-06 16:34 | 50.99567 | 0.00682 | 10244 ft | 307 kts | 174° |
| 2026-05-06 16:34 | 50.97362 | 0.01038 | 10475 ft | 330 kts | 175° |
| 2026-05-06 16:34 | 50.95016 | 0.01360 | 10915 ft | 343 kts | 175° |
| 2026-05-06 16:35 | 50.92621 | 0.01664 | 11646 ft | 347 kts | 175° |
| 2026-05-06 16:35 | 50.90197 | 0.01967 | 12431 ft | 351 kts | 175° |
| 2026-05-06 16:35 | 50.87757 | 0.02276 | 13223 ft | 353 kts | 175° |
| 2026-05-06 16:35 | 50.85294 | 0.02596 | 13965 ft | 356 kts | 175° |
| 2026-05-06 16:36 | 50.82814 | 0.02928 | 14644 ft | 360 kts | 175° |
| 2026-05-06 16:36 | 50.80305 | 0.03268 | 15314 ft | 363 kts | 175° |
| 2026-05-06 16:36 | 50.77777 | 0.03612 | 15979 ft | 367 kts | 175° |
| 2026-05-06 16:36 | 50.75223 | 0.03959 | 16642 ft | 370 kts | 175° |
| 2026-05-06 16:37 | 50.72644 | 0.04309 | 17300 ft | 374 kts | 175° |
| 2026-05-06 16:37 | 50.70039 | 0.04661 | 17954 ft | 378 kts | 175° |
| 2026-05-06 16:37 | 50.67409 | 0.05017 | 18549 ft | 381 kts | 175° |
| 2026-05-06 16:37 | 50.64752 | 0.05375 | 19109 ft | 384 kts | 175° |
| 2026-05-06 16:38 | 50.62076 | 0.05734 | 19678 ft | 387 kts | 175° |
| 2026-05-06 16:38 | 50.59382 | 0.06097 | 20236 ft | 390 kts | 175° |
| 2026-05-06 16:38 | 50.56664 | 0.06458 | 20786 ft | 393 kts | 175° |
| 2026-05-06 16:38 | 50.53928 | 0.06821 | 21342 ft | 396 kts | 175° |
| 2026-05-06 16:39 | 50.51169 | 0.07185 | 21897 ft | 399 kts | 175° |
| 2026-05-06 16:39 | 50.48393 | 0.07550 | 22447 ft | 402 kts | 175° |
| 2026-05-06 16:39 | 50.45596 | 0.07922 | 22965 ft | 405 kts | 175° |
| 2026-05-06 16:39 | 50.42779 | 0.08299 | 23487 ft | 408 kts | 175° |
| 2026-05-06 16:40 | 50.39985 | 0.08800 | 23918 ft | 411 kts | 169° |
| 2026-05-06 16:40 | 50.37228 | 0.09994 | 24361 ft | 413 kts | 160° |
| 2026-05-06 16:40 | 50.34630 | 0.11913 | 24831 ft | 414 kts | 150° |
| 2026-05-06 16:40 | 50.32206 | 0.14370 | 25309 ft | 415 kts | 147° |
| 2026-05-06 16:41 | 50.29790 | 0.16869 | 25792 ft | 416 kts | 147° |
| 2026-05-06 16:41 | 50.27373 | 0.19363 | 26269 ft | 417 kts | 147° |
| 2026-05-06 16:41 | 50.24947 | 0.21860 | 26739 ft | 418 kts | 147° |
| 2026-05-06 16:41 | 50.22513 | 0.24360 | 27190 ft | 419 kts | 147° |
| 2026-05-06 16:42 | 50.20068 | 0.26868 | 27656 ft | 421 kts | 147° |
| 2026-05-06 16:42 | 50.17620 | 0.29378 | 28096 ft | 422 kts | 147° |
| 2026-05-06 16:42 | 50.15165 | 0.31900 | 28539 ft | 423 kts | 147° |
| 2026-05-06 16:42 | 50.12696 | 0.34438 | 28953 ft | 425 kts | 147° |
| 2026-05-06 16:43 | 50.10227 | 0.36972 | 29370 ft | 426 kts | 147° |
| 2026-05-06 16:43 | 50.07745 | 0.39515 | 29755 ft | 428 kts | 147° |
| 2026-05-06 16:43 | 50.05253 | 0.42064 | 30127 ft | 429 kts | 147° |
| 2026-05-06 16:43 | 50.02748 | 0.44624 | 30441 ft | 431 kts | 147° |
| 2026-05-06 16:44 | 50.00237 | 0.47183 | 30763 ft | 433 kts | 147° |
| 2026-05-06 16:44 | 49.97710 | 0.49756 | 31081 ft | 435 kts | 147° |
| 2026-05-06 16:44 | 49.95174 | 0.52339 | 31441 ft | 436 kts | 147° |
| 2026-05-06 16:44 | 49.92644 | 0.54914 | 31916 ft | 434 kts | 147° |
| 2026-05-06 16:45 | 49.90123 | 0.57477 | 32370 ft | 433 kts | 147° |
| 2026-05-06 16:45 | 49.87605 | 0.60034 | 32825 ft | 432 kts | 146° |
| 2026-05-06 16:45 | 49.85094 | 0.62577 | 33282 ft | 431 kts | 147° |
| 2026-05-06 16:45 | 49.82572 | 0.65088 | 33744 ft | 430 kts | 147° |
| 2026-05-06 16:46 | 49.80050 | 0.67549 | 34153 ft | 429 kts | 147° |
| 2026-05-06 16:46 | 49.77551 | 0.69956 | 34480 ft | 429 kts | 148° |
| 2026-05-06 16:46 | 49.75015 | 0.72391 | 34782 ft | 429 kts | 148° |
| 2026-05-06 16:46 | 49.72483 | 0.74829 | 35086 ft | 429 kts | 148° |
| 2026-05-06 16:47 | 49.69952 | 0.77277 | 35373 ft | 429 kts | 148° |
| 2026-05-06 16:47 | 49.67418 | 0.79736 | 35651 ft | 430 kts | 148° |
| 2026-05-06 16:47 | 49.64885 | 0.82197 | 35930 ft | 430 kts | 148° |
| 2026-05-06 16:47 | 49.62349 | 0.84653 | 36200 ft | 431 kts | 148° |
| 2026-05-06 16:48 | 49.59810 | 0.87104 | 36453 ft | 431 kts | 148° |
| 2026-05-06 16:48 | 49.57262 | 0.89559 | 36710 ft | 432 kts | 148° |
| 2026-05-06 16:48 | 49.54711 | 0.92013 | 36924 ft | 433 kts | 148° |
| 2026-05-06 16:49 | 49.49613 | 0.96908 | 36967 ft | 430 kts | 148° |
| 2026-05-06 16:49 | 49.44533 | 1.01772 | 36967 ft | 430 kts | 148° |
| 2026-05-06 16:50 | 49.39460 | 1.06624 | 36988 ft | 430 kts | 148° |
| 2026-05-06 16:50 | 49.34380 | 1.11472 | 36965 ft | 430 kts | 148° |
| 2026-05-06 16:51 | 49.29297 | 1.16316 | 36986 ft | 430 kts | 148° |
| 2026-05-06 16:51 | 49.24206 | 1.21145 | 36975 ft | 431 kts | 148° |
| 2026-05-06 16:52 | 49.19107 | 1.25968 | 36954 ft | 431 kts | 149° |
| 2026-05-06 16:52 | 49.16399 | 1.27910 | 36949 ft | 430 kts | 162° |
| 2026-05-06 16:52 | 49.13538 | 1.29253 | 36951 ft | 430 kts | 163° |
| 2026-05-06 16:53 | 49.07807 | 1.31890 | 36948 ft | 431 kts | 163° |
| 2026-05-06 16:53 | 49.02064 | 1.34501 | 36954 ft | 431 kts | 163° |
| 2026-05-06 16:54 | 48.97294 | 1.36669 | 36955 ft | 431 kts | 163° |
| 2026-05-06 16:54 | 48.91545 | 1.39288 | 36950 ft | 431 kts | 163° |
| 2026-05-06 16:55 | 48.85802 | 1.41912 | 36947 ft | 431 kts | 163° |
| 2026-05-06 16:55 | 48.80050 | 1.44515 | 36946 ft | 431 kts | 163° |
| 2026-05-06 16:56 | 48.74300 | 1.47108 | 36937 ft | 431 kts | 163° |
| 2026-05-06 16:56 | 48.68547 | 1.49701 | 36933 ft | 431 kts | 163° |
| 2026-05-06 16:57 | 48.62790 | 1.52296 | 36937 ft | 432 kts | 163° |
| 2026-05-06 16:57 | 48.57031 | 1.54880 | 36935 ft | 432 kts | 163° |
| 2026-05-06 16:58 | 48.51268 | 1.57472 | 36936 ft | 432 kts | 163° |
| 2026-05-06 16:58 | 48.45505 | 1.60051 | 36934 ft | 433 kts | 163° |
| 2026-05-06 16:59 | 48.39733 | 1.62616 | 36928 ft | 432 kts | 163° |
| 2026-05-06 16:59 | 48.33962 | 1.65183 | 36928 ft | 432 kts | 163° |
| 2026-05-06 17:00 | 48.28225 | 1.67725 | 36920 ft | 433 kts | 163° |
| 2026-05-06 17:00 | 48.22447 | 1.70276 | 36918 ft | 433 kts | 163° |
| 2026-05-06 17:01 | 48.16669 | 1.72840 | 36910 ft | 433 kts | 163° |
| 2026-05-06 17:01 | 48.10889 | 1.75424 | 36917 ft | 433 kts | 163° |
| 2026-05-06 17:02 | 48.05109 | 1.78001 | 36923 ft | 434 kts | 163° |
| 2026-05-06 17:02 | 47.99317 | 1.80533 | 36911 ft | 434 kts | 164° |
| 2026-05-06 17:03 | 47.93513 | 1.83044 | 36912 ft | 434 kts | 164° |
| 2026-05-06 17:03 | 47.87712 | 1.85555 | 36923 ft | 434 kts | 164° |
| 2026-05-06 17:04 | 47.81902 | 1.88076 | 36926 ft | 435 kts | 164° |
| 2026-05-06 17:04 | 47.76090 | 1.90591 | 36945 ft | 435 kts | 165° |
| 2026-05-06 17:05 | 47.70282 | 1.93088 | 36941 ft | 435 kts | 165° |
| 2026-05-06 17:05 | 47.64474 | 1.95590 | 36946 ft | 434 kts | 165° |
| 2026-05-06 17:06 | 47.58674 | 1.98084 | 36941 ft | 434 kts | 165° |
| 2026-05-06 17:06 | 47.52865 | 2.00569 | 36944 ft | 434 kts | 165° |
| 2026-05-06 17:07 | 47.47063 | 2.03053 | 36946 ft | 434 kts | 165° |
| 2026-05-06 17:07 | 47.41262 | 2.05529 | 36948 ft | 434 kts | 165° |
| 2026-05-06 17:08 | 47.35494 | 2.07987 | 36945 ft | 434 kts | 165° |
| 2026-05-06 17:08 | 47.29695 | 2.10452 | 36945 ft | 434 kts | 165° |
| 2026-05-06 17:09 | 47.23895 | 2.12908 | 36939 ft | 434 kts | 165° |
| 2026-05-06 17:09 | 47.18086 | 2.15356 | 36938 ft | 434 kts | 165° |
| 2026-05-06 17:10 | 47.12277 | 2.17802 | 36940 ft | 434 kts | 165° |
| 2026-05-06 17:10 | 47.06544 | 2.20603 | 36940 ft | 435 kts | 160° |
| 2026-05-06 17:11 | 47.00913 | 2.23905 | 36934 ft | 435 kts | 160° |
| 2026-05-06 17:11 | 46.95285 | 2.27194 | 36933 ft | 436 kts | 160° |
| 2026-05-06 17:12 | 46.89650 | 2.30474 | 36934 ft | 436 kts | 160° |
| 2026-05-06 17:12 | 46.84019 | 2.33747 | 36935 ft | 436 kts | 160° |
| 2026-05-06 17:13 | 46.78381 | 2.37022 | 36936 ft | 436 kts | 160° |
| 2026-05-06 17:13 | 46.72740 | 2.40283 | 36934 ft | 436 kts | 160° |
| 2026-05-06 17:14 | 46.67102 | 2.43531 | 36931 ft | 436 kts | 160° |
| 2026-05-06 17:14 | 46.61461 | 2.46775 | 36932 ft | 436 kts | 160° |
| 2026-05-06 17:15 | 46.55855 | 2.50004 | 36928 ft | 436 kts | 160° |
| 2026-05-06 17:15 | 46.50206 | 2.53236 | 36932 ft | 436 kts | 160° |
| 2026-05-06 17:16 | 46.44554 | 2.56465 | 36933 ft | 437 kts | 160° |
| 2026-05-06 17:16 | 46.38903 | 2.59701 | 36928 ft | 437 kts | 160° |
| 2026-05-06 17:17 | 46.33246 | 2.62925 | 36931 ft | 437 kts | 161° |
| 2026-05-06 17:17 | 46.27582 | 2.66131 | 36933 ft | 437 kts | 161° |
| 2026-05-06 17:18 | 46.21921 | 2.69335 | 36925 ft | 437 kts | 161° |
| 2026-05-06 17:18 | 46.16256 | 2.72545 | 36928 ft | 437 kts | 161° |
| 2026-05-06 17:19 | 46.10589 | 2.75747 | 36923 ft | 437 kts | 161° |
| 2026-05-06 17:19 | 46.04916 | 2.78937 | 36920 ft | 437 kts | 161° |
| 2026-05-06 17:20 | 45.99246 | 2.82125 | 36923 ft | 438 kts | 161° |
| 2026-05-06 17:20 | 45.93546 | 2.85202 | 36924 ft | 437 kts | 162° |
| 2026-05-06 17:21 | 45.87816 | 2.88173 | 36921 ft | 437 kts | 162° |
| 2026-05-06 17:21 | 45.82093 | 2.91145 | 36923 ft | 438 kts | 162° |
| 2026-05-06 17:22 | 45.76362 | 2.94104 | 36922 ft | 436 kts | 167° |
| 2026-05-06 17:22 | 45.70411 | 2.95179 | 36925 ft | 430 kts | 184° |
| 2026-05-06 17:23 | 45.64436 | 2.94992 | 36921 ft | 430 kts | 183° |
| 2026-05-06 17:23 | 45.58459 | 2.94836 | 36919 ft | 430 kts | 183° |
| 2026-05-06 17:24 | 45.52524 | 2.94688 | 36919 ft | 429 kts | 183° |
| 2026-05-06 17:24 | 45.46548 | 2.94535 | 36915 ft | 429 kts | 183° |
| 2026-05-06 17:25 | 45.40578 | 2.94377 | 36916 ft | 429 kts | 183° |
| 2026-05-06 17:25 | 45.34608 | 2.94217 | 36921 ft | 429 kts | 183° |
| 2026-05-06 17:26 | 45.28635 | 2.94062 | 36922 ft | 429 kts | 183° |
| 2026-05-06 17:26 | 45.22666 | 2.93909 | 36924 ft | 429 kts | 183° |
| 2026-05-06 17:27 | 45.16704 | 2.93755 | 36921 ft | 428 kts | 184° |
| 2026-05-06 17:27 | 45.10744 | 2.93592 | 36925 ft | 428 kts | 184° |
| 2026-05-06 17:28 | 45.04785 | 2.93431 | 36926 ft | 428 kts | 184° |
| 2026-05-06 17:28 | 44.98822 | 2.93281 | 36925 ft | 428 kts | 184° |
| 2026-05-06 17:29 | 44.92852 | 2.93138 | 36928 ft | 430 kts | 184° |
| 2026-05-06 17:29 | 44.86896 | 2.92976 | 36913 ft | 431 kts | 184° |
| 2026-05-06 17:30 | 44.80888 | 2.92741 | 36917 ft | 432 kts | 185° |
| 2026-05-06 17:30 | 44.74885 | 2.92268 | 36929 ft | 432 kts | 186° |
| 2026-05-06 17:31 | 44.68885 | 2.91754 | 36925 ft | 432 kts | 186° |
| 2026-05-06 17:31 | 44.62872 | 2.91300 | 36927 ft | 432 kts | 186° |
| 2026-05-06 17:32 | 44.56858 | 2.90877 | 36927 ft | 432 kts | 186° |
| 2026-05-06 17:32 | 44.50842 | 2.90446 | 36937 ft | 432 kts | 186° |
| 2026-05-06 17:33 | 44.44838 | 2.90007 | 36934 ft | 432 kts | 186° |
| 2026-05-06 17:33 | 44.38877 | 2.89569 | 36938 ft | 432 kts | 186° |
| 2026-05-06 17:34 | 44.32875 | 2.89140 | 36944 ft | 431 kts | 186° |
| 2026-05-06 17:34 | 44.26883 | 2.88708 | 36941 ft | 431 kts | 186° |
| 2026-05-06 17:35 | 44.20894 | 2.88275 | 36948 ft | 430 kts | 186° |
| 2026-05-06 17:35 | 44.14917 | 2.87841 | 36947 ft | 430 kts | 186° |
| 2026-05-06 17:36 | 44.05963 | 2.87197 | 36943 ft | 429 kts | 187° |
| 2026-05-06 17:36 | 43.99996 | 2.86771 | 36946 ft | 429 kts | 187° |
| 2026-05-06 17:37 | 43.97012 | 2.86557 | 36794 ft | 429 kts | 187° |
| 2026-05-06 17:37 | 43.94031 | 2.86347 | 36537 ft | 428 kts | 187° |
| 2026-05-06 17:37 | 43.91056 | 2.86142 | 36283 ft | 428 kts | 187° |
| 2026-05-06 17:37 | 43.88125 | 2.85939 | 36032 ft | 428 kts | 187° |
| 2026-05-06 17:38 | 43.85158 | 2.85735 | 35786 ft | 427 kts | 187° |
| 2026-05-06 17:38 | 43.82177 | 2.85524 | 35155 ft | 431 kts | 187° |
| 2026-05-06 17:38 | 43.79173 | 2.85307 | 34485 ft | 433 kts | 187° |
| 2026-05-06 17:38 | 43.76165 | 2.85141 | 33925 ft | 432 kts | 186° |
| 2026-05-06 17:39 | 43.73155 | 2.85112 | 33255 ft | 432 kts | 184° |
| 2026-05-06 17:39 | 43.70155 | 2.85180 | 32669 ft | 430 kts | 184° |
| 2026-05-06 17:39 | 43.67178 | 2.85284 | 32072 ft | 427 kts | 183° |
| 2026-05-06 17:39 | 43.64213 | 2.85387 | 31501 ft | 425 kts | 184° |
| 2026-05-06 17:40 | 43.61267 | 2.85475 | 30927 ft | 422 kts | 184° |
| 2026-05-06 17:40 | 43.58339 | 2.85539 | 30359 ft | 419 kts | 184° |
| 2026-05-06 17:40 | 43.55432 | 2.85588 | 29760 ft | 416 kts | 184° |
| 2026-05-06 17:40 | 43.52549 | 2.85628 | 29198 ft | 412 kts | 184° |
| 2026-05-06 17:41 | 43.50661 | 2.85653 | 28837 ft | 408 kts | 184° |
| 2026-05-06 17:41 | 43.46926 | 2.85699 | 28126 ft | 402 kts | 184° |
| 2026-05-06 17:41 | 43.44144 | 2.85734 | 27606 ft | 398 kts | 184° |
| 2026-05-06 17:41 | 43.41385 | 2.85766 | 27099 ft | 394 kts | 184° |
| 2026-05-06 17:42 | 43.38657 | 2.85801 | 26596 ft | 391 kts | 184° |
| 2026-05-06 17:42 | 43.36861 | 2.85826 | 26276 ft | 388 kts | 184° |
| 2026-05-06 17:42 | 43.34172 | 2.85866 | 25794 ft | 385 kts | 184° |
| 2026-05-06 17:42 | 43.31498 | 2.85905 | 25339 ft | 382 kts | 184° |
| 2026-05-06 17:43 | 43.28849 | 2.85944 | 24884 ft | 379 kts | 184° |
| 2026-05-06 17:43 | 43.26218 | 2.85981 | 24432 ft | 376 kts | 184° |
| 2026-05-06 17:43 | 43.23613 | 2.86018 | 23976 ft | 374 kts | 184° |
| 2026-05-06 17:43 | 43.20175 | 2.86064 | 23359 ft | 371 kts | 183° |
| 2026-05-06 17:44 | 43.18432 | 2.86089 | 23029 ft | 370 kts | 183° |
| 2026-05-06 17:44 | 43.15868 | 2.86126 | 22574 ft | 366 kts | 183° |
| 2026-05-06 17:44 | 43.13335 | 2.86164 | 22129 ft | 363 kts | 183° |
| 2026-05-06 17:44 | 43.10813 | 2.86202 | 21680 ft | 360 kts | 183° |
| 2026-05-06 17:45 | 43.08317 | 2.86243 | 21228 ft | 358 kts | 182° |
| 2026-05-06 17:45 | 43.05833 | 2.86287 | 20781 ft | 355 kts | 182° |
| 2026-05-06 17:45 | 43.03368 | 2.86328 | 20328 ft | 353 kts | 182° |
| 2026-05-06 17:45 | 43.00918 | 2.86364 | 19874 ft | 351 kts | 182° |
| 2026-05-06 17:46 | 42.98485 | 2.86393 | 19431 ft | 349 kts | 183° |
| 2026-05-06 17:46 | 42.96064 | 2.86421 | 18988 ft | 347 kts | 182° |
| 2026-05-06 17:46 | 42.93653 | 2.86451 | 18545 ft | 345 kts | 182° |
| 2026-05-06 17:46 | 42.91288 | 2.86484 | 18092 ft | 344 kts | 182° |
| 2026-05-06 17:47 | 42.88907 | 2.86519 | 17638 ft | 341 kts | 182° |
| 2026-05-06 17:47 | 42.86548 | 2.86556 | 17215 ft | 337 kts | 182° |
| 2026-05-06 17:47 | 42.84205 | 2.86592 | 16792 ft | 335 kts | 182° |
| 2026-05-06 17:47 | 42.81885 | 2.86628 | 16378 ft | 332 kts | 182° |
| 2026-05-06 17:48 | 42.79583 | 2.86663 | 15970 ft | 330 kts | 182° |
| 2026-05-06 17:48 | 42.77294 | 2.86689 | 15567 ft | 328 kts | 182° |
| 2026-05-06 17:48 | 42.75011 | 2.86880 | 15012 ft | 332 kts | 173° |
| 2026-05-06 17:48 | 42.72734 | 2.87684 | 14283 ft | 343 kts | 164° |
| 2026-05-06 17:49 | 42.70454 | 2.88686 | 13772 ft | 344 kts | 164° |
| 2026-05-06 17:49 | 42.68179 | 2.89676 | 13268 ft | 343 kts | 164° |
| 2026-05-06 17:49 | 42.65915 | 2.90655 | 12798 ft | 340 kts | 164° |
| 2026-05-06 17:49 | 42.63664 | 2.91620 | 12339 ft | 338 kts | 164° |
| 2026-05-06 17:50 | 42.61432 | 2.92574 | 11884 ft | 336 kts | 164° |
| 2026-05-06 17:50 | 42.59210 | 2.93525 | 11426 ft | 333 kts | 164° |
| 2026-05-06 17:50 | 42.57008 | 2.94470 | 10984 ft | 331 kts | 164° |
| 2026-05-06 17:50 | 42.54814 | 2.95411 | 10533 ft | 329 kts | 164° |
| 2026-05-06 17:51 | 42.52650 | 2.96340 | 10230 ft | 319 kts | 164° |
| 2026-05-06 17:51 | 42.50605 | 2.97222 | 10061 ft | 300 kts | 165° |
| 2026-05-06 17:51 | 42.48612 | 2.97809 | 9629 ft | 289 kts | 178° |
| 2026-05-06 17:51 | 42.46627 | 2.97703 | 9197 ft | 284 kts | 192° |
| 2026-05-06 17:52 | 42.44731 | 2.97034 | 8843 ft | 281 kts | 199° |
| 2026-05-06 17:52 | 42.42859 | 2.96297 | 8486 ft | 280 kts | 198° |
| 2026-05-06 17:52 | 42.40990 | 2.95575 | 8117 ft | 278 kts | 198° |
| 2026-05-06 17:52 | 42.39147 | 2.94866 | 7900 ft | 271 kts | 198° |
| 2026-05-06 17:53 | 42.37371 | 2.94186 | 7772 ft | 260 kts | 198° |
| 2026-05-06 17:53 | 42.35658 | 2.93529 | 7554 ft | 253 kts | 198° |
| 2026-05-06 17:53 | 42.33965 | 2.92878 | 7197 ft | 253 kts | 198° |
| 2026-05-06 17:53 | 42.32301 | 2.92235 | 6863 ft | 251 kts | 198° |
| 2026-05-06 17:54 | 42.30624 | 2.91587 | 6547 ft | 249 kts | 198° |
| 2026-05-06 17:54 | 42.28973 | 2.90949 | 6337 ft | 243 kts | 198° |
| 2026-05-06 17:54 | 42.27368 | 2.90329 | 6156 ft | 236 kts | 198° |
| 2026-05-06 17:54 | 42.25800 | 2.89723 | 5983 ft | 236 kts | 198° |
| 2026-05-06 17:55 | 42.24217 | 2.89110 | 5800 ft | 237 kts | 197° |
| 2026-05-06 17:55 | 42.22629 | 2.88497 | 5621 ft | 237 kts | 198° |
| 2026-05-06 17:55 | 42.21044 | 2.87887 | 5442 ft | 237 kts | 197° |
| 2026-05-06 17:55 | 42.19461 | 2.87279 | 5262 ft | 236 kts | 197° |
| 2026-05-06 17:56 | 42.17891 | 2.86677 | 5086 ft | 232 kts | 197° |
| 2026-05-06 17:56 | 42.16363 | 2.86079 | 4919 ft | 225 kts | 198° |
| 2026-05-06 17:56 | 42.14902 | 2.85490 | 4750 ft | 214 kts | 197° |
| 2026-05-06 17:56 | 42.13504 | 2.84948 | 4599 ft | 203 kts | 197° |
| 2026-05-06 17:57 | 42.12194 | 2.84448 | 4480 ft | 192 kts | 197° |
| 2026-05-06 17:57 | 42.10925 | 2.83964 | 4382 ft | 187 kts | 197° |
| 2026-05-06 17:57 | 42.09668 | 2.83485 | 4190 ft | 188 kts | 196° |
| 2026-05-06 17:57 | 42.08419 | 2.83009 | 3946 ft | 186 kts | 196° |
| 2026-05-06 17:58 | 42.07174 | 2.82535 | 3706 ft | 185 kts | 195° |
| 2026-05-06 17:58 | 42.05937 | 2.82068 | 3482 ft | 184 kts | 195° |
| 2026-05-06 17:58 | 42.04706 | 2.81600 | 3242 ft | 183 kts | 195° |
| 2026-05-06 17:58 | 42.03480 | 2.81126 | 2980 ft | 183 kts | 195° |
| 2026-05-06 17:59 | 42.02261 | 2.80665 | 2731 ft | 181 kts | 195° |
| 2026-05-06 17:59 | 42.01078 | 2.80214 | 2488 ft | 174 kts | 195° |
| 2026-05-06 17:59 | 41.99933 | 2.79777 | 2255 ft | 167 kts | 194° |
| 2026-05-06 17:59 | 41.98844 | 2.79367 | 2015 ft | 158 kts | 194° |
| 2026-05-06 18:00 | 41.97827 | 2.78983 | 1813 ft | 146 kts | 194° |
| 2026-05-06 18:00 | 41.96877 | 2.78626 | 1623 ft | 139 kts | 195° |
| 2026-05-06 18:00 | 41.95959 | 2.78280 | 1418 ft | 136 kts | 195° |
| 2026-05-06 18:00 | 41.95054 | 2.77938 | 1244 ft | 135 kts | 195° |
| 2026-05-06 18:01 | 41.94144 | 2.77590 | 1055 ft | 137 kts | 195° |
| 2026-05-06 18:01 | 41.93217 | 2.77237 | 877 ft | 141 kts | 195° |
| 2026-05-06 18:01 | 41.92263 | 2.76874 | 694 ft | 144 kts | 195° |
| 2026-05-06 18:01 | 41.91284 | 2.76506 | 505 ft | 147 kts | 195° |
| 2026-05-06 18:02 | 41.90369 | 2.76160 | 451 ft | 120 kts | 196° |
| 2026-05-06 18:02 | 41.89746 | 2.75923 | 415 ft | 60 kts | 196° |
| 2026-05-06 18:02 | 41.89585 | 2.75862 | 412 ft | 10 kts | 194° |
| 2026-05-06 18:02 | 41.89523 | 2.75897 | 409 ft | 12 kts | 116° |
| 2026-05-06 18:03 | 41.89539 | 2.75978 | 408 ft | 9 kts | 60° |
| 2026-05-06 18:03 | 41.89571 | 2.76054 | 411 ft | 10 kts | 60° |
| 2026-05-06 18:03 | 41.89620 | 2.76108 | 414 ft | 9 kts | 18° |
| 2026-05-06 18:03 | 41.89682 | 2.76130 | 417 ft | 10 kts | 15° |
| 2026-05-06 18:04 | 41.89762 | 2.76160 | 413 ft | 13 kts | 15° |
| 2026-05-06 18:04 | 41.89846 | 2.76192 | 423 ft | 13 kts | 16° |
| 2026-05-06 18:04 | 41.89929 | 2.76224 | 423 ft | 12 kts | 16° |
| 2026-05-06 18:04 | 41.90001 | 2.76252 | 420 ft | 10 kts | 15° |
| 2026-05-06 18:05 | 41.90046 | 2.76284 | 423 ft | 7 kts | 61° |
| 2026-05-06 18:05 | 41.90035 | 2.76362 | 427 ft | 10 kts | 105° |
| 2026-05-06 18:05 | 41.90018 | 2.76425 | 418 ft | 6 kts | 134° |
| 2026-05-06 18:05 | 41.89974 | 2.76420 | 425 ft | 6 kts | 195° |
| 2026-05-06 18:06 | 41.89946 | 2.76410 | 418 ft | 3 kts | 195° |
| 2026-05-06 18:06 | 41.89938 | 2.76407 | 418 ft | 0 kts | 195° |